Terminal Aerodrome Forecast
Issued by NWS Tampa Bay Area, FL

Home | Current Version | Previous Version | Text Only | Print | Product List | Glossary On
Versions: 1 2 3 4 5 6 7 8 9 10 11 12 13 14 15 16 17 18
000
FTUS42 KTBW 201100 RRA
TAFFMY
TAF
KFMY 201141Z 2012/2112 VRB03KT P6SM VCSH FEW010 SCT030 OVC080
     FM201400 VRB05KT 6SM -RA SCT010 OVC030
      TEMPO 2014/2018 4SM RA BKN010
     FM201800 25006KT P6SM VCTS SCT015CB OVC030
     FM210100 VRB04KT P6SM VCSH SCT020 OVC050
     FM210400 VRB02KT P6SM SCT020 BKN050=

USA.gov is the U.S. government's official web portal to all federal, state and local government web resources and services.